首页
METAR-TAF:

METAR-TAF

机场 :

卡托维兹, 波兰

纬度: 50-28-27N, 经度: 019-04-48E, 海拔: 284米

当前天气观测

该预报发布于39分钟前的13:30 UTC
风速11节,风向西转西南
温度 4°C
湿度 60%
气压 1037 hPa
能见度10公里或以上
1500米以下无云,无积雨云

METAR: EPKT 211330Z 24011KT CAVOK 04/M03 Q1037

时间: 15:09 (14:09 UTC)

预报

该预报发布于2小时和39分钟前的11:30 UTC
预报有效从21日的 12点(UTC)到 22日的 12点(UTC)
风速12节,风向西转西南
能见度10公里或以上
1500米以下无云,无积雨云
从 22日的 0900点(UTC)
风速16节,风向西,有时为26节阵风
能見度: 4000
多云层高于1300英尺
雨, 雪, 雨, 轻雾
短暂存在
从 22日的 09点(UTC)到 22日的 11点(UTC)
能見度: 2000
多云层高于700英尺
(小) 冻, 雨

TAF: EPKT 211130Z 2112/2212 25012KT CAVOK FM220900 26016G26KT 4000 RA SNRA BR BKN013 TEMPO 2209/2211 2000 -FZRA BKN007

超过4000个机场的气象观测和天气预报(METAR&TAF报告)。

可查询的气象台以黄色和红色小点在地图上表示。

将鼠标移到小点上方,可查看气象台名称。

然后点击查看天气观测和预报。

如需切换地图:点击带黑十字的绿色按钮放大地图;点击带横线的绿色按钮缩小地图;或者点击绿色箭头查看邻近地区的地图。


METAR-TAF: